nws-alerts: Checking more than four warning/county codes can delay the loading of your pages. You should use a cron job to get the data.

Nearby METAR Reports

 

KFCI - Richmond/Chester, Virginia, USA
Distance from station: ESE 7mi, 11km
Updated: Tue, 26-Jan-2021 5:56am EST
Light rain, Overcast
Light rain, Overcast
 Wind from NNE
Wind: NNE 7 mph , 11 km/h
Temperature: 36°F , 2°C
Wind Chill: 30°F , -1°C
Dew Point: 36°F , 2°C
Humidity: 100%
Barometer: 29.93 inHg , 1013.5 hPa
Summary: Light rain
Clouds: Overcast
Visibility: 10 miles , 16 km
Cloud details: Overcast 500 ft
2021/01/26 10:56 KFCI 261056Z AUTO 02006KT 10SM -RA OVC005 02/02 A2993 RMK AO2 RAE09B43UPB09E13B35E43 SLP147 T00170017 FZRANO PNO $
KRIC - Richmond, Virginia, USA
Distance from station: ENE 19mi, 30km
Updated: Tue, 26-Jan-2021 5:54am EST
Overcast
Overcast
 Wind from NNE
Wind: NNE 7 mph , 11 km/h
Temperature: 36°F , 2°C
Wind Chill: 30°F , -1°C
Dew Point: 36°F , 2°C
Humidity: 100%
Barometer: 29.93 inHg , 1013.5 hPa
Clouds: Overcast
Visibility: 10 miles , 16 km
Cloud details: Overcast 500 ft
2021/01/26 10:54 KRIC 261054Z 02006KT 10SM OVC005 02/02 A2993 RMK AO2 RAE20 SLP141 P0002 T00220017
 
KPTB - Petersburg, Virginia, USA
Distance from station: SSE 19mi, 31km
Updated: Tue, 26-Jan-2021 5:55am EST
Light rain, Overcast
Light rain, Overcast
 Wind from NE
Wind: NE 6 mph , 9 km/h
Temperature: 37°F , 3°C
Wind Chill: 32°F , 0°C
Dew Point: 36°F , 2°C
Humidity: 93%
Barometer: 29.92 inHg , 1013.2 hPa
Summary: Light rain
Clouds: Overcast
Visibility: 10 miles , 16 km
Cloud details: Overcast 300 ft
2021/01/26 10:55 KPTB 261055Z AUTO 04005KT 10SM -RA OVC003 03/02 A2992 RMK AO2 P0001 T00310023
KOFP - Richmond/Hanover, Virginia, USA
Distance from station: NNE 22mi, 36km
Updated: Tue, 26-Jan-2021 5:54am EST
Overcast
Overcast
 Wind from varies
Wind: varies 3 mph , 6 km/h
Temperature: 36°F , 2°C
Dew Point: 32°F , 0°C
Humidity: 87%
Barometer: 29.96 inHg , 1014.6 hPa
Clouds: Overcast
Visibility: 8 miles , 13 km
Cloud details: Overcast 400 ft
2021/01/26 10:54 KOFP 261054Z AUTO VRB03KT 8SM OVC004 02/00 A2996 RMK AO2 UPE0956B12E15RAB0956E12 SLP145 P0000 T00170000
 
KW96 - Quinton, Virginia, USA
Distance from station: E 28mi, 46km
Updated: Tue, 26-Jan-2021 5:55am EST
Overcast
Overcast
 Wind from NE
Wind: NE 3 mph , 6 km/h
Temperature: 36°F , 2°C
Dew Point: 36°F , 2°C
Humidity: 100%
Barometer: 29.92 inHg , 1013.2 hPa
Clouds: Overcast
Visibility: 10 miles , 16 km
Cloud details: Overcast 400 ft
2021/01/26 10:55 KW96 261055Z AUTO 04003KT 10SM OVC004 02/02 A2992 RMK AO1 P0001 T00170017
KBKT - Blackstone Army, Virginia, USA
Distance from station: SW 30mi, 48km
Updated: Tue, 26-Jan-2021 5:55am EST
Overcast
Overcast
 Wind from N
Wind: N 3 mph , 6 km/h
Temperature: 37°F , 3°C
Dew Point: 37°F , 3°C
Humidity: 100%
Barometer: 29.92 inHg , 1013.2 hPa
Clouds: Overcast
Visibility: 10 miles , 16 km
Cloud details: Overcast 300 ft
2021/01/26 10:55 KBKT 261055Z AUTO 01003KT 10SM OVC003 03/03 A2992 RMK AO1 T00270027
 
KW81 - Crewe, Virginia, USA
Distance from station: SW 30mi, 49km
Updated: Tue, 26-Jan-2021 5:55am EST
Overcast
Overcast
 Wind from N
Wind: N 3 mph , 6 km/h
Temperature: 36°F , 2°C
Dew Point: 34°F , 1°C
Humidity: 93%
Barometer: 29.92 inHg , 1013.2 hPa
Clouds: Overcast
Visibility: 10 miles , 16 km
Cloud details: Overcast 300 ft
2021/01/26 10:55 KW81 261055Z AUTO 01003KT 10SM OVC003 02/01 A2992 RMK AO1 T00170005
K7W4 - Bumpass, Virginia, USA
Distance from station: N 38mi, 61km
Updated: Tue, 26-Jan-2021 5:55am EST
Overcast
Overcast
 Wind from calm
Wind: Calm
Temperature: 32°F , 0°C
Dew Point: 32°F , 0°C
Humidity: 100%
Barometer: 29.96 inHg , 1014.6 hPa
Clouds: Overcast
Visibility: 7 miles , 11 km
Cloud details: Overcast 300 ft
2021/01/26 10:55 K7W4 261055Z AUTO 00000KT 7SM OVC003 00/00 A2996 RMK AO1 T00030000
 
KFVX - Farmville, Virginia, USA
Distance from station: W 43mi, 69km
Updated: Tue, 26-Jan-2021 5:55am EST
Overcast
Overcast
 Wind from NNE
Wind: NNE 6 mph , 9 km/h
Temperature: 34°F , 1°C
Wind Chill: 29°F , -2°C
Dew Point: 34°F , 1°C
Humidity: 100%
Barometer: 29.92 inHg , 1013.2 hPa
Clouds: Overcast
Visibility: 7 miles , 11 km
Cloud details: Overcast 300 ft
2021/01/26 10:55 KFVX 261055Z AUTO 02005KT 7SM OVC003 01/01 A2992 RMK AO2 P0001 T00120010
KW31 - Kenbridge, Virginia, USA
Distance from station: SW 43mi, 70km
Updated: Tue, 26-Jan-2021 5:15am EST
Overcast
Overcast
 Wind from N
Wind: N 5 mph , 7 km/h
Temperature: 36°F , 2°C
Wind Chill: 32°F , 0°C
Dew Point: 36°F , 2°C
Humidity: 100%
Barometer: 29.91 inHg , 1012.9 hPa
Clouds: Overcast
Visibility: 10 miles , 16 km
Cloud details: Overcast 200 ft
2021/01/26 10:15 KW31 261015Z AUTO 35004KT 10SM OVC002 02/02 A2991 RMK AO1 T00230023
 
KLKU - Louisa, Virginia, USA
Distance from station: NNW 44mi, 72km
Updated: Tue, 26-Jan-2021 5:55am EST
Mist, Overcast
Mist, Overcast
 Wind from NE
Wind: NE 5 mph , 7 km/h
Temperature: 32°F , 0°C
Wind Chill: 27°F , -3°C
Dew Point: 32°F , 0°C
Humidity: 100%
Barometer: 29.98 inHg , 1015.2 hPa
Summary: Mist
Clouds: Overcast
Visibility: 3 1/2 miles , 5.6 km
Cloud details: Overcast 300 ft
2021/01/26 10:55 KLKU 261055Z AUTO 04004KT 3 1/2SM BR OVC003 00/00 A2998 RMK AO2 T10011002
KLVL - Lawrenceville, Virginia, USA
Distance from station: S 46mi, 75km
Updated: Tue, 26-Jan-2021 5:55am EST
Overcast
Overcast
 Wind from calm
Wind: Calm
Temperature: 39°F , 4°C
Dew Point: 37°F , 3°C
Humidity: 93%
Barometer: 29.91 inHg , 1012.9 hPa
Clouds: Overcast
Visibility: 5 miles , 8 km
Cloud details: Overcast 300 ft
2021/01/26 10:55 KLVL 261055Z AUTO 00000KT 5SM OVC003 04/03 A2991 RMK AO1 P0008 T00380033
 
KAKQ - Norfolk/Wakefld, Virginia, USA
Distance from station: SE 47mi, 75km
Updated: Tue, 26-Jan-2021 5:54am EST
Light rain, Overcast
Light rain, Overcast
 Wind from calm
Wind: Calm
Temperature: 41°F , 5°C
Dew Point: 39°F , 4°C
Humidity: 93%
Barometer: 29.91 inHg , 1012.9 hPa
Summary: Light rain
Clouds: Overcast
Visibility: 10 miles , 16 km
Cloud details: Overcast 400 ft
2021/01/26 10:54 KAKQ 261054Z AUTO 00000KT 10SM -RA OVC004 05/04 A2991 RMK AO2 RAE22B35 SLP131 P0004 T00500044
KFYJ - West Point, Virginia, USA
Distance from station: E 48mi, 78km
Updated: Tue, 26-Jan-2021 5:35am EST
Overcast
Overcast
 Wind from NE
Wind: NE 5 mph , 7 km/h
Temperature: 37°F , 3°C
Wind Chill: 33°F , 1°C
Dew Point: 36°F , 2°C
Humidity: 93%
Barometer: 29.92 inHg , 1013.2 hPa
Clouds: Overcast
Visibility: 5 miles , 8 km
Cloud details: Overcast 400 ft
2021/01/26 10:35 KFYJ 261035Z AUTO 04004KT 5SM OVC004 03/02 A2992 RMK AO1 P0001 T00250021